Time;durP1;ratioP1;P1;durP2;ratioP2;P2;SDS_P1;SDS_P2;PMS_P1;PMS_P2;Temp;Humidity;BMP_temperature;BMP_pressure;BME280_temperature;BME280_humidity;BME280_pressure;Samples;Min_cycle;Max_cycle;Signal;HPM_P1;HPM_P2
2023/02/22 00:01:46;;;;;;;11.88;6.53;;;6.30;57.90;;;1.44;100.00;95394.38;4946827;28;20053;-50
2023/02/22 00:04:12;;;;;;;14.60;6.28;;;6.30;58.10;;;1.39;100.00;95400.28;4932949;29;20023;-51
2023/02/22 00:06:39;;;;;;;12.55;7.22;;;6.20;58.00;;;1.37;100.00;95387.34;4946609;28;20034;-51
2023/02/22 00:09:08;;;;;;;13.10;7.38;;;6.20;58.20;;;1.39;100.00;95389.78;4926348;29;20036;-50
2023/02/22 00:11:34;;;;;;;17.65;7.25;;;6.20;58.20;;;1.38;100.00;95388.97;4926701;29;20042;-49
2023/02/22 00:14:03;;;;;;;13.52;7.35;;;6.20;58.40;;;1.38;100.00;95390.81;4946246;28;20638;-49
2023/02/22 00:16:30;;;;;;;16.38;7.75;;;6.20;58.50;;;1.38;100.00;95381.09;4928543;29;20509;-55
2023/02/22 00:18:59;;;;;;;14.25;7.00;;;6.20;58.50;;;1.41;100.00;95390.38;4931457;29;20027;-52
2023/02/22 00:21:34;;;;;;;12.82;7.05;;;6.20;58.70;;;1.40;100.00;95394.00;4930693;29;20397;-50
2023/02/22 00:24:06;;;;;;;13.13;7.07;;;6.20;58.80;;;1.45;100.00;95390.75;4930802;29;20043;-50
2023/02/22 00:26:56;;;;;;;14.05;7.13;;;6.20;58.70;;;1.45;100.00;95388.13;4928055;29;20023;-53
2023/02/22 00:29:23;;;;;;;15.93;7.57;;;6.20;58.80;;;1.39;100.00;95398.44;4931099;29;20027;-49
2023/02/22 00:31:49;;;;;;;15.52;7.70;;;6.20;58.80;;;1.42;100.00;95391.97;4930092;29;20498;-50
2023/02/22 00:34:16;;;;;;;12.27;7.50;;;6.30;58.80;;;1.40;100.00;95388.75;4931865;29;20109;-55
2023/02/22 00:36:48;;;;;;;17.95;8.18;;;6.20;58.80;;;1.35;100.00;95386.78;4930539;29;20023;-56
2023/02/22 00:39:14;;;;;;;14.05;8.13;;;6.20;58.90;;;1.38;100.00;95391.59;4930019;29;20030;-49
2023/02/22 00:41:46;;;;;;;14.60;8.52;;;6.10;58.70;;;1.32;100.00;95379.31;4946648;29;20035;-50
2023/02/22 00:44:17;;;;;;;15.50;8.40;;;6.10;58.90;;;1.31;100.00;95390.81;4929181;29;20031;-49
2023/02/22 00:46:49;;;;;;;14.23;7.78;;;6.10;58.90;;;1.28;100.00;95393.06;4931370;29;20378;-51
2023/02/22 00:49:19;;;;;;;16.88;8.65;;;6.10;58.90;;;1.26;100.00;95392.47;4932281;29;20023;-51
2023/02/22 00:52:03;;;;;;;15.30;8.52;;;6.00;58.80;;;1.18;100.00;95383.03;4939770;29;20058;-52
2023/02/22 00:54:30;;;;;;;18.80;9.00;;;6.00;59.00;;;1.11;100.00;95392.75;4930819;29;20114;-53
2023/02/22 00:56:57;;;;;;;16.50;9.10;;;5.90;58.90;;;1.10;100.00;95391.97;4937308;29;20062;-49
2023/02/22 00:59:26;;;;;;;21.13;9.85;;;5.90;58.90;;;1.09;100.00;95385.09;4946779;29;20430;-51
2023/02/22 01:01:52;;;;;;;16.90;9.35;;;5.90;59.10;;;1.04;100.00;95378.88;4930520;29;20023;-51
2023/02/22 01:04:21;;;;;;;17.85;9.00;;;5.90;59.10;;;1.01;100.00;95381.91;4932229;29;20481;-49
2023/02/22 01:06:49;;;;;;;18.23;9.70;;;5.80;59.10;;;1.01;100.00;95382.72;4935210;29;20027;-49
2023/02/22 01:09:20;;;;;;;19.13;9.90;;;5.80;59.30;;;1.01;100.00;95380.09;4930102;29;20029;-49
2023/02/22 01:11:57;;;;;;;20.05;9.40;;;5.80;59.40;;;1.02;100.00;95381.69;4930249;29;20093;-49
2023/02/22 01:14:28;;;;;;;19.58;10.02;;;5.80;59.60;;;1.01;100.00;95371.44;4929264;29;20023;-52
2023/02/22 01:16:57;;;;;;;15.95;9.45;;;5.80;59.60;;;0.98;100.00;95374.47;4931761;29;20023;-54
2023/02/22 01:19:26;;;;;;;19.35;9.48;;;5.80;59.60;;;0.93;100.00;95368.00;4934009;29;20023;-54
2023/02/22 01:22:00;;;;;;;17.65;10.45;;;5.80;59.60;;;0.90;100.00;95373.66;4933146;29;20081;-54
2023/02/22 01:24:29;;;;;;;18.10;9.60;;;5.70;59.70;;;0.88;100.00;95365.22;4935529;29;20027;-54
2023/02/22 01:26:55;;;;;;;19.58;11.15;;;5.70;59.60;;;0.89;100.00;95368.66;4933509;29;20030;-52
2023/02/22 01:29:26;;;;;;;22.55;11.75;;;5.70;59.60;;;0.89;100.00;95363.41;4935080;29;20030;-52
2023/02/22 01:31:55;;;;;;;18.50;10.20;;;5.70;59.90;;;0.89;100.00;95360.78;4948419;28;20493;-54
2023/02/22 01:34:33;;;;;;;18.65;10.02;;;5.70;59.90;;;0.88;100.00;95361.81;4933675;29;20575;-55
2023/02/22 01:37:00;;;;;;;22.38;10.80;;;5.70;60.00;;;0.89;100.00;95360.78;4949385;28;20078;-52
2023/02/22 01:39:29;;;;;;;20.60;10.35;;;5.70;60.00;;;0.91;100.00;95349.06;4920953;29;20028;-51
2023/02/22 01:41:56;;;;;;;20.85;9.65;;;5.70;60.10;;;0.92;100.00;95348.06;4949787;28;20030;-53
2023/02/22 01:44:35;;;;;;;20.90;9.80;;;5.70;60.10;;;0.91;100.00;95348.28;4932897;29;20073;-53
2023/02/22 01:47:05;;;;;;;17.35;8.48;;;5.70;60.30;;;0.90;100.00;95352.69;4948921;28;20102;-49
2023/02/22 01:49:46;;;;;;;15.57;9.15;;;5.70;60.20;;;0.85;100.00;95349.91;4933552;29;20031;-51
2023/02/22 01:52:19;;;;;;;12.48;7.88;;;5.70;60.20;;;0.83;100.00;95353.75;4944497;28;20027;-49
2023/02/22 01:54:59;;;;;;;15.48;8.25;;;5.70;60.20;;;0.77;100.00;95354.59;4949820;28;20176;-49
2023/02/22 01:57:33;;;;;;;14.25;8.40;;;5.70;60.20;;;0.76;100.00;95345.91;4923356;29;20105;-52
2023/02/22 02:00:09;;;;;;;15.07;8.23;;;5.60;60.10;;;0.77;100.00;95342.28;4949225;28;20490;-55
2023/02/22 02:02:44;;;;;;;12.77;8.00;;;5.60;60.10;;;0.76;100.00;95345.13;4932768;28;20459;-49
2023/02/22 02:05:12;;;;;;;17.35;7.80;;;5.60;60.10;;;0.73;100.00;95343.72;4928675;29;20504;-49
2023/02/22 02:07:40;;;;;;;16.13;8.55;;;5.60;60.00;;;0.74;100.00;95352.38;4916861;29;20053;-54
2023/02/22 02:10:15;;;;;;;13.27;7.53;;;5.60;60.00;;;0.71;100.00;95347.56;4922248;29;20040;-53
2023/02/22 02:12:47;;;;;;;14.88;7.90;;;5.60;60.10;;;0.69;100.00;95347.78;4949241;28;20131;-49
2023/02/22 02:15:32;;;;;;;14.88;8.10;;;5.50;60.10;;;0.73;100.00;95346.34;4946396;28;20062;-51
2023/02/22 02:18:08;;;;;;;12.88;7.95;;;5.50;60.10;;;0.73;100.00;95358.66;4932650;29;20518;-51
2023/02/22 02:21:49;;;;;;;16.08;7.55;;;5.50;60.10;;;0.59;100.00;95340.31;4931263;29;20105;-50
2023/02/22 02:25:19;;;;;;;12.70;7.18;;;5.50;60.00;;;0.44;100.00;95342.41;4948378;28;20133;-51
2023/02/22 02:28:10;;;;;;;12.45;7.15;;;5.40;59.90;;;0.31;100.00;95351.09;4929683;29;20119;-49
2023/02/22 02:31:26;;;;;;;15.95;8.10;;;5.30;59.80;;;0.29;100.00;95341.84;4933631;29;20039;-49
2023/02/22 02:34:23;;;;;;;11.82;7.25;;;5.30;59.90;;;0.22;100.00;95334.03;4929192;29;20045;-53
2023/02/22 02:37:29;;;;;;;13.48;8.15;;;5.20;59.90;;;0.16;100.00;95329.59;4915705;29;20098;-49
2023/02/22 02:40:40;;;;;;;13.65;7.22;;;5.10;59.90;;;0.15;100.00;95327.97;4923998;29;20042;-55
2023/02/22 02:43:32;;;;;;;13.73;7.97;;;5.00;59.90;;;0.09;100.00;95324.34;4933773;29;20644;-51
2023/02/22 02:46:14;;;;;;;21.38;8.55;;;5.00;60.00;;;0.09;100.00;95326.19;4925598;29;20077;-52
2023/02/22 02:48:58;;;;;;;16.85;7.45;;;5.00;60.20;;;0.10;100.00;95320.75;4947784;28;20067;-49
2023/02/22 02:51:41;;;;;;;14.20;8.05;;;4.90;60.30;;;0.13;100.00;95314.28;4943138;28;20050;-51
2023/02/22 02:54:14;;;;;;;17.30;7.72;;;4.90;60.40;;;0.11;100.00;95316.31;4948183;28;20031;-49
2023/02/22 02:56:45;;;;;;;17.63;8.57;;;4.90;60.40;;;0.08;100.00;95314.91;4954006;23;20067;-53
2023/02/22 02:59:37;;;;;;;14.32;8.40;;;4.90;60.40;;;0.07;100.00;95315.91;4951179;28;20453;-52
2023/02/22 03:02:47;;;;;;;16.13;7.55;;;4.90;60.60;;;0.02;100.00;95315.72;4968291;28;20196;-53
2023/02/22 03:05:42;;;;;;;13.85;8.02;;;4.90;60.50;;;-0.01;100.00;95311.69;4956618;28;20424;-50
2023/02/22 03:08:54;;;;;;;18.73;8.20;;;4.80;60.50;;;-0.01;100.00;95305.66;4968643;28;20034;-52
2023/02/22 03:11:34;;;;;;;15.75;7.28;;;4.80;60.70;;;-0.01;100.00;95295.19;4957649;28;20079;-51
2023/02/22 03:14:36;;;;;;;14.93;7.70;;;4.80;60.80;;;-0.03;100.00;95303.25;4964638;28;20050;-51
2023/02/22 03:17:36;;;;;;;13.27;7.07;;;4.80;60.90;;;0.10;100.00;95309.47;4959329;28;20076;-51
2023/02/22 03:20:48;;;;;;;16.25;7.78;;;4.90;61.10;;;0.12;100.00;95304.81;4958283;28;20022;-53
2023/02/22 03:23:49;;;;;;;11.27;6.55;;;4.90;61.00;;;0.07;100.00;95304.63;4946881;28;20057;-52
2023/02/22 03:27:01;;;;;;;12.70;7.15;;;4.90;60.90;;;0.02;100.00;95307.06;4952283;28;20099;-53
2023/02/22 03:29:36;;;;;;;11.80;6.93;;;4.90;60.80;;;-0.09;100.00;95303.25;4962520;28;20113;-52
2023/02/22 03:32:15;;;;;;;15.40;7.60;;;4.80;60.60;;;-0.13;100.00;95305.47;4957895;28;20014;-48
2023/02/22 03:35:09;;;;;;;11.63;6.72;;;4.80;60.60;;;-0.14;100.00;95303.06;4970162;28;20026;-49
2023/02/22 03:37:45;;;;;;;17.35;7.80;;;4.80;60.80;;;-0.14;100.00;95295.22;4954157;28;20448;-53
2023/02/22 03:40:25;;;;;;;14.23;6.82;;;4.70;60.70;;;-0.12;100.00;95299.25;4961841;28;20476;-53
2023/02/22 03:43:23;;;;;;;15.38;7.00;;;4.70;60.80;;;-0.14;100.00;95296.00;4958883;28;20030;-54
2023/02/22 03:45:54;;;;;;;15.02;7.97;;;4.80;60.90;;;-0.22;100.00;95308.50;4968604;28;20449;-53
2023/02/22 03:48:56;;;;;;;13.57;7.43;;;4.70;60.80;;;-0.26;100.00;95302.88;4971388;28;20484;-54
2023/02/22 03:51:24;;;;;;;12.90;7.40;;;4.70;60.90;;;-0.25;100.00;95292.22;4965475;28;20350;-54
2023/02/22 03:53:51;;;;;;;16.33;7.43;;;4.70;60.80;;;-0.25;100.00;95299.25;4985437;28;20037;-52
2023/02/22 03:56:45;;;;;;;11.77;6.85;;;4.70;60.90;;;-0.26;100.00;95300.25;4951363;28;20104;-54
2023/02/22 03:59:13;;;;;;;15.45;7.50;;;4.70;61.10;;;-0.24;100.00;95303.47;4954415;28;20567;-55
2023/02/22 04:01:45;;;;;;;14.95;8.27;;;4.70;61.00;;;-0.18;100.00;95304.50;4951205;28;20026;-56
2023/02/22 04:04:11;;;;;;;15.50;7.57;;;4.70;61.20;;;-0.17;100.00;95300.84;4945781;28;20026;-56
2023/02/22 04:06:44;;;;;;;16.20;8.23;;;4.70;61.10;;;-0.11;100.00;95302.66;4953399;28;20029;-52
2023/02/22 04:09:16;;;;;;;;;;;4.70;61.30;;;-0.08;100.00;95297.00;4953250;28;20162;-56
2023/02/22 04:11:42;;;;;;;12.23;6.70;;;4.70;60.90;;;-0.10;100.00;95293.78;4966147;28;19910;-55
2023/02/22 04:14:08;;;;;;;23.25;8.50;;;4.70;61.00;;;-0.14;100.00;95300.44;4933752;28;20084;-55
2023/02/22 04:16:46;;;;;;;17.23;8.57;;;4.70;61.10;;;-0.09;100.00;95293.59;4950799;28;20027;-55
2023/02/22 04:19:18;;;;;;;13.57;8.20;;;4.80;61.30;;;-0.08;100.00;95294.38;4953235;28;20428;-51
2023/02/22 04:21:44;;;;;;;16.07;8.23;;;4.80;61.40;;;-0.04;100.00;95301.63;4950596;28;20026;-54
2023/02/22 04:24:14;;;;;;;15.50;8.75;;;4.80;61.30;;;0.00;100.00;95294.19;4950985;28;20030;-50
2023/02/22 04:26:46;;;;;;;17.42;8.85;;;4.80;61.50;;;0.05;100.00;95290.94;4951111;28;20031;-52
2023/02/22 04:29:15;;;;;;;15.98;8.55;;;4.90;61.60;;;0.07;100.00;95297.59;4951853;28;20019;-52
2023/02/22 04:31:47;;;;;;;15.25;9.38;;;4.90;61.50;;;0.09;100.00;95292.94;4933879;29;20049;-50
2023/02/22 04:34:31;;;;;;;21.73;10.10;;;4.90;61.60;;;0.13;100.00;95291.53;4951993;28;20026;-49
2023/02/22 04:37:00;;;;;;;16.77;8.65;;;5.00;61.70;;;0.15;100.00;95291.31;4951074;28;20035;-52
2023/02/22 04:39:26;;;;;;;17.60;9.93;;;5.00;61.60;;;0.15;100.00;95288.69;4952436;28;20389;-49
2023/02/22 04:41:52;;;;;;;17.02;9.77;;;5.00;61.70;;;0.23;100.00;95296.31;4955756;28;20027;-52
2023/02/22 04:44:21;;;;;;;19.15;9.75;;;5.10;61.70;;;0.29;100.00;95287.63;4953880;28;20700;-51
2023/02/22 04:46:47;;;;;;;15.57;9.07;;;5.10;61.90;;;0.32;100.00;95291.66;4956866;28;20022;-49
2023/02/22 04:49:13;;;;;;;14.15;9.07;;;5.10;61.80;;;0.34;100.00;95293.03;4954202;28;20034;-52
2023/02/22 04:51:45;;;;;;;18.77;9.15;;;5.20;61.80;;;0.35;100.00;95292.06;4954102;28;20030;-55
2023/02/22 04:54:12;;;;;;;19.35;9.75;;;5.20;61.80;;;0.37;100.00;95295.25;4955814;28;20432;-50
2023/02/22 04:56:41;;;;;;;15.20;8.55;;;5.20;61.70;;;0.41;100.00;95293.84;4952340;28;20030;-54
2023/02/22 04:59:11;;;;;;;15.43;9.23;;;5.20;61.80;;;0.43;100.00;95293.63;4960246;28;20096;-51
2023/02/22 05:01:38;;;;;;;21.80;9.30;;;5.30;61.80;;;0.45;100.00;95292.41;4972293;28;20370;-50
2023/02/22 05:04:06;;;;;;;13.57;8.60;;;5.30;61.80;;;0.46;100.00;95288.75;4948957;28;20413;-54
2023/02/22 05:06:32;;;;;;;14.73;7.90;;;5.30;61.80;;;0.50;100.00;95291.75;4954765;28;20023;-50
2023/02/22 05:08:58;;;;;;;16.75;9.77;;;5.40;61.90;;;0.57;100.00;95291.75;4953101;28;20094;-49
2023/02/22 05:11:24;;;;;;;17.55;9.02;;;5.40;61.90;;;0.60;100.00;95286.09;4966286;28;20110;-52
2023/02/22 05:13:50;;;;;;;13.57;9.07;;;5.40;61.90;;;0.60;100.00;95284.28;4983740;28;20046;-55
2023/02/22 05:16:16;;;;;;;16.70;9.63;;;5.50;62.00;;;0.61;100.00;95287.69;4956230;28;20121;-53
2023/02/22 05:18:48;;;;;;;14.77;8.43;;;5.50;62.00;;;0.63;100.00;95288.31;4956791;28;20429;-52
2023/02/22 05:21:17;;;;;;;13.93;8.27;;;5.50;62.10;;;0.63;100.00;95283.06;4962869;28;20033;-55
2023/02/22 05:23:43;;;;;;;10.15;7.03;;;5.50;62.00;;;0.66;100.00;95293.13;4955330;28;20101;-52
2023/02/22 05:26:18;;;;;;;16.02;9.25;;;5.50;62.00;;;0.69;100.00;95284.84;4956611;28;20029;-51
2023/02/22 05:28:44;;;;;;;14.07;9.07;;;5.60;62.00;;;0.71;100.00;95289.88;4958376;28;20288;-53
2023/02/22 05:31:19;;;;;;;15.80;8.63;;;5.50;61.90;;;0.70;100.00;95283.81;4955066;28;20027;-51
2023/02/22 05:33:44;;;;;;;15.23;7.80;;;5.60;62.00;;;0.73;100.00;95280.00;4953890;28;20397;-52
2023/02/22 05:36:13;;;;;;;15.35;8.25;;;5.60;62.00;;;0.76;100.00;95287.44;4956493;28;20035;-53
2023/02/22 05:38:43;;;;;;;14.65;7.05;;;5.60;62.00;;;0.79;100.00;95287.00;4965797;28;20030;-51
2023/02/22 05:41:12;;;;;;;12.68;7.68;;;5.60;62.00;;;0.82;100.00;95281.34;4953876;28;20031;-53
2023/02/22 05:43:41;;;;;;;11.88;7.15;;;5.70;62.10;;;0.88;100.00;95285.75;4964360;28;20053;-52
2023/02/22 05:46:07;;;;;;;13.27;7.32;;;5.70;62.20;;;0.95;100.00;95283.88;4951486;28;20389;-51
2023/02/22 05:48:33;;;;;;;15.98;8.55;;;5.70;62.10;;;0.97;100.00;95279.22;4953861;28;20472;-51
2023/02/22 05:50:59;;;;;;;15.20;7.38;;;5.80;62.20;;;1.03;100.00;95277.56;4954919;28;20030;-52
2023/02/22 05:53:29;;;;;;;15.05;7.25;;;5.80;62.10;;;1.02;100.00;95275.97;4954141;28;20385;-54
2023/02/22 05:55:55;;;;;;;15.65;8.07;;;5.80;62.20;;;1.05;100.00;95284.22;4967897;28;20410;-51
2023/02/22 05:58:21;;;;;;;15.35;7.20;;;5.80;62.10;;;1.08;100.00;95275.91;4953231;28;20041;-53
2023/02/22 06:00:47;;;;;;;11.88;7.28;;;5.90;62.20;;;1.09;100.00;95284.59;4952815;28;20029;-54
2023/02/22 06:03:13;;;;;;;13.15;6.78;;;5.90;62.10;;;1.09;100.00;95287.22;4949755;28;20030;-54
2023/02/22 06:05:39;;;;;;;16.15;7.05;;;5.90;62.00;;;1.03;100.00;95272.31;4952052;28;20178;-48
2023/02/22 06:08:08;;;;;;;13.35;7.47;;;5.90;62.00;;;1.11;100.00;95282.56;4952185;28;20118;-53
2023/02/22 06:10:34;;;;;;;11.65;6.78;;;5.90;61.90;;;1.05;100.00;95278.97;4952492;28;20425;-52
2023/02/22 06:13:02;;;;;;;11.85;6.68;;;5.90;61.80;;;1.08;100.00;95281.16;4951284;28;20038;-53
2023/02/22 06:15:29;;;;;;;13.85;6.32;;;6.00;61.90;;;1.09;100.00;95279.34;4926271;28;20054;-52
2023/02/22 06:17:57;;;;;;;12.77;6.05;;;6.00;61.90;;;1.13;100.00;95283.97;4952899;28;20520;-55
2023/02/22 06:20:27;;;;;;;12.57;6.05;;;6.00;62.00;;;1.15;100.00;95281.91;4955134;28;20026;-56
2023/02/22 06:22:57;;;;;;;11.18;5.88;;;6.00;61.90;;;1.15;100.00;95283.75;4959048;28;20106;-53
2023/02/22 06:25:31;;;;;;;11.02;5.38;;;6.00;61.90;;;1.12;100.00;95279.72;4951634;28;20034;-56
2023/02/22 06:28:00;;;;;;;10.60;5.40;;;6.00;61.80;;;1.14;100.00;95284.78;4951834;28;20057;-53
2023/02/22 06:30:28;;;;;;;8.02;5.25;;;6.00;61.80;;;1.15;100.00;95281.13;4945017;28;20125;-56
2023/02/22 06:32:54;;;;;;;14.27;5.63;;;6.00;61.80;;;1.16;100.00;95282.75;4945166;28;20439;-52
2023/02/22 06:35:21;;;;;;;7.45;4.70;;;6.10;61.70;;;1.15;100.00;95281.91;4952685;28;20133;-54
2023/02/22 06:37:48;;;;;;;7.53;4.68;;;6.10;61.60;;;1.17;100.00;95281.72;4950702;28;20025;-54
2023/02/22 06:40:14;;;;;;;8.25;5.20;;;6.10;61.60;;;1.13;100.00;95283.97;4950868;28;20041;-51
2023/02/22 06:42:40;;;;;;;8.88;4.75;;;6.10;61.60;;;1.14;100.00;95285.56;4928325;28;20125;-51
2023/02/22 06:45:08;;;;;;;7.38;4.03;;;6.10;61.50;;;1.14;100.00;95292.63;4937721;28;20031;-51
2023/02/22 06:47:40;;;;;;;10.98;4.78;;;6.10;61.50;;;1.17;100.00;95294.03;4948719;28;20194;-52
2023/02/22 06:50:17;;;;;;;9.32;4.22;;;6.10;61.50;;;1.25;100.00;95289.31;4934396;28;20122;-56
2023/02/22 06:52:43;;;;;;;5.47;3.50;;;6.20;61.50;;;1.32;99.52;95295.34;4965087;28;20489;-56
2023/02/22 06:55:09;;;;;;;13.45;3.90;;;6.20;61.40;;;1.34;98.96;95295.09;4949589;28;20031;-54
2023/02/22 06:57:41;;;;;;;10.77;4.32;;;6.30;61.40;;;1.35;98.99;95299.38;4947935;28;20042;-55
2023/02/22 07:00:18;;;;;;;9.10;4.50;;;6.30;61.40;;;1.36;98.71;95314.09;4951468;28;20030;-55
2023/02/22 07:02:47;;;;;;;6.97;4.15;;;6.30;61.30;;;1.44;98.34;95310.38;4952832;28;20554;-55
2023/02/22 07:05:18;;;;;;;9.10;4.25;;;6.40;61.30;;;1.51;97.88;95306.69;4953462;28;20125;-54
2023/02/22 07:07:46;;;;;;;8.23;4.40;;;6.50;61.30;;;1.55;96.94;95302.63;4965595;28;20026;-53
2023/02/22 07:10:27;;;;;;;6.32;3.92;;;6.50;61.20;;;1.63;96.96;95304.19;4950201;28;20027;-55
2023/02/22 07:13:01;;;;;;;7.15;4.07;;;6.70;61.20;;;1.69;96.65;95307.75;4950561;28;20031;-55
2023/02/22 07:15:31;;;;;;;6.07;3.47;;;6.70;61.00;;;1.75;96.37;95309.53;4954195;28;20037;-56
2023/02/22 07:17:58;;;;;;;5.50;3.67;;;6.80;61.00;;;1.81;96.51;95298.94;4949346;28;20182;-54
2023/02/22 07:20:28;;;;;;;7.40;3.90;;;6.90;60.90;;;1.89;96.34;95305.75;4946623;28;20031;-53
2023/02/22 07:23:04;;;;;;;7.32;4.15;;;7.00;60.80;;;2.01;95.95;95305.88;4949688;28;20501;-55
2023/02/22 07:25:31;;;;;;;12.13;3.75;;;7.10;60.70;;;2.07;95.13;95305.00;4949943;28;20088;-49
2023/02/22 07:27:58;;;;;;;5.80;3.40;;;7.20;60.60;;;2.19;95.59;95305.84;4949399;28;20149;-51
2023/02/22 07:30:32;;;;;;;8.00;3.88;;;7.30;60.50;;;2.30;95.24;95305.13;4949746;28;20121;-50
2023/02/22 07:33:04;;;;;;;6.35;3.60;;;7.40;60.40;;;2.41;94.84;95306.22;4949335;28;20031;-55
2023/02/22 07:35:37;;;;;;;8.82;4.22;;;7.50;60.30;;;2.52;94.60;95296.81;4949257;28;20031;-51
2023/02/22 07:38:09;;;;;;;7.90;4.35;;;7.60;60.20;;;2.63;94.72;95303.13;4962398;28;20022;-53
2023/02/22 07:40:37;;;;;;;6.72;3.47;;;7.70;60.20;;;2.75;94.12;95293.47;4948931;28;20050;-50
2023/02/22 07:43:24;;;;;;;5.88;3.63;;;7.80;60.00;;;2.83;91.97;95295.00;4933317;28;20031;-54
2023/02/22 07:45:55;;;;;;;7.85;4.13;;;8.00;60.00;;;3.00;91.24;95298.59;4949950;28;20049;-54
2023/02/22 07:48:26;;;;;;;9.48;3.97;;;8.20;59.80;;;3.29;92.53;95301.44;4950077;28;20022;-52
2023/02/22 07:50:53;;;;;;;11.63;4.32;;;8.50;59.80;;;3.50;91.15;95297.47;4949873;28;20436;-56
2023/02/22 07:53:29;;;;;;;8.38;3.88;;;8.70;59.60;;;3.71;91.51;95296.94;4937004;28;20086;-49
2023/02/22 07:55:58;;;;;;;7.68;4.10;;;8.90;59.50;;;3.96;91.30;95301.19;4979108;28;20038;-54
2023/02/22 07:58:31;;;;;;;8.40;3.78;;;9.20;59.40;;;4.13;88.73;95296.81;4944703;28;20402;-54
2023/02/22 08:01:00;;;;;;;6.70;3.53;;;9.40;59.20;;;4.32;87.23;95298.25;4949879;28;20481;-56
2023/02/22 08:03:30;;;;;;;10.75;4.10;;;9.60;59.00;;;4.49;86.08;95295.72;4948386;28;20031;-55
2023/02/22 08:06:01;;;;;;;5.78;3.05;;;9.80;58.80;;;4.64;80.18;95298.69;4939399;28;20394;-53
2023/02/22 08:08:30;;;;;;;10.80;3.88;;;10.00;58.40;;;4.86;81.92;95298.03;4947652;28;20340;-50
2023/02/22 08:10:59;;;;;;;6.35;3.47;;;10.20;58.00;;;5.04;79.98;95297.81;4951170;28;20038;-54
2023/02/22 08:13:31;;;;;;;7.13;4.10;;;10.50;57.80;;;5.24;79.82;95294.75;4950164;28;20109;-54
2023/02/22 08:16:00;;;;;;;6.55;3.13;;;10.70;58.10;;;5.42;77.32;95296.41;4949042;28;20030;-51
2023/02/22 08:18:26;;;;;;;8.23;3.50;;;10.90;57.20;;;5.62;76.32;95295.13;4953101;28;20057;-50
2023/02/22 08:20:53;;;;;;;5.07;3.15;;;11.10;56.80;;;5.75;72.84;95292.94;4961539;28;20046;-53
2023/02/22 08:23:24;;;;;;;6.93;3.17;;;11.30;56.40;;;5.98;70.46;95293.84;4947853;28;20022;-51
2023/02/22 08:25:50;;;;;;;9.45;3.53;;;11.50;56.00;;;6.20;71.99;95292.03;4951337;28;20462;-50
2023/02/22 08:28:22;;;;;;;6.95;3.40;;;11.80;55.70;;;6.35;70.64;95288.00;4955281;28;20049;-54
2023/02/22 08:30:54;;;;;;;9.35;3.28;;;12.00;55.30;;;6.72;70.45;95291.66;4957966;28;20030;-52
2023/02/22 08:33:23;;;;;;;5.30;3.00;;;12.40;54.90;;;7.16;67.63;95286.31;4955128;28;20030;-51
2023/02/22 08:36:01;;;;;;;5.88;3.00;;;12.90;54.40;;;7.57;64.53;95286.69;4957620;28;20051;-52
2023/02/22 08:38:32;;;;;;;6.68;2.55;;;13.50;53.70;;;7.99;62.58;95288.59;4943720;28;20018;-53
2023/02/22 08:40:58;;;;;;;5.40;2.28;;;14.10;53.20;;;8.36;59.46;95301.00;4954476;28;20034;-50
2023/02/22 08:43:24;;;;;;;4.35;2.47;;;14.40;52.60;;;8.74;58.64;95305.25;4951509;28;20031;-52
2023/02/22 08:45:51;;;;;;;3.05;2.20;;;14.80;51.90;;;9.17;57.23;95299.78;4962791;28;20023;-53
2023/02/22 08:48:29;;;;;;;4.43;2.78;;;15.20;51.30;;;9.55;55.11;95297.72;4949996;28;20055;-54
2023/02/22 08:51:00;;;;;;;5.78;2.60;;;15.50;50.40;;;9.97;54.31;95300.16;4966335;28;20095;-52
2023/02/22 08:53:32;;;;;;;3.25;2.33;;;15.90;49.90;;;10.29;51.73;95299.06;4958531;28;20019;-55
2023/02/22 08:55:58;;;;;;;6.93;2.60;;;16.30;49.10;;;10.45;51.53;95294.50;4977706;28;20031;-52
2023/02/22 08:58:30;;;;;;;5.28;2.78;;;16.60;48.70;;;10.66;52.33;95312.03;4963201;23;20504;-52
2023/02/22 09:00:59;;;;;;;4.25;2.75;;;16.80;47.90;;;10.67;50.85;95297.63;4935611;29;20030;-50
2023/02/22 09:03:28;;;;;;;5.22;2.80;;;17.00;47.40;;;10.75;51.57;95299.75;4945890;28;20381;-50
2023/02/22 09:05:58;;;;;;;5.65;3.20;;;17.30;46.80;;;10.86;51.09;95297.84;4947233;28;20374;-51
2023/02/22 09:08:24;;;;;;;5.75;3.40;;;17.50;46.20;;;11.07;51.71;95295.88;4948322;28;20019;-56
2023/02/22 09:10:59;;;;;;;6.28;3.28;;;17.80;45.90;;;11.25;51.52;95297.09;4941464;28;20322;-51
2023/02/22 09:13:25;;;;;;;7.85;3.85;;;18.00;45.20;;;11.24;50.96;95290.19;4949098;28;20027;-50
2023/02/22 09:16:02;;;;;;;13.55;3.92;;;18.10;45.20;;;11.23;51.92;95294.72;4946394;28;20497;-51
2023/02/22 09:18:28;;;;;;;6.60;4.03;;;18.10;44.70;;;11.47;51.04;95294.03;4948523;28;20450;-50
2023/02/22 09:20:57;;;;;;;5.65;3.58;;;18.20;44.50;;;11.47;51.37;95297.53;4944793;28;20041;-52
2023/02/22 09:23:26;;;;;;;7.78;3.88;;;18.50;43.90;;;11.83;50.29;95297.25;4929447;29;20031;-56
2023/02/22 09:25:52;;;;;;;9.25;4.20;;;18.80;43.50;;;12.19;48.64;95292.47;4950140;28;20041;-60
2023/02/22 09:28:18;;;;;;;7.13;3.92;;;19.10;43.10;;;12.45;48.02;95286.88;4964350;28;20031;-53
2023/02/22 09:30:53;;;;;;;8.95;4.75;;;19.40;42.70;;;12.83;47.01;95285.09;4960389;28;20022;-50
2023/02/22 09:33:21;;;;;;;7.45;3.67;;;19.70;42.00;;;13.09;45.99;95292.81;4935365;28;20030;-51
2023/02/22 09:35:49;;;;;;;7.53;4.47;;;20.00;41.70;;;13.33;45.44;95282.88;4952076;28;20031;-50
2023/02/22 09:38:31;;;;;;;9.70;4.00;;;20.40;41.10;;;13.65;45.11;95286.69;4951664;28;20505;-51
2023/02/22 09:41:43;;;;;;;4.68;3.95;;;20.80;40.50;;;13.98;43.74;95284.06;4951238;28;20121;-50
2023/02/22 09:44:17;;;;;;;7.55;4.55;;;21.20;40.10;;;14.09;43.48;95283.59;4966353;28;20493;-49
2023/02/22 09:46:46;;;;;;;6.60;4.60;;;21.50;39.60;;;14.43;42.90;95281.69;4951878;28;20149;-53
2023/02/22 09:49:19;;;;;;;7.57;5.63;;;21.70;38.90;;;14.35;43.93;95280.47;4949408;28;20024;-49
2023/02/22 09:52:02;;;;;;;10.00;5.78;;;21.90;38.30;;;14.42;43.91;95283.56;4951176;28;20121;-50
2023/02/22 09:55:41;;;;;;;9.00;5.80;;;21.90;37.80;;;14.27;45.76;95284.63;4952460;28;20481;-49
2023/02/22 09:58:45;;;;;;;10.75;5.85;;;21.90;37.50;;;14.37;45.79;95286.31;4850847;29;20044;-48
2023/02/22 10:01:46;;;;;;;17.42;6.82;;;21.60;37.80;;;14.22;46.24;95289.28;4874218;29;20037;-52
2023/02/22 10:05:09;;;;;;;9.50;6.85;;;21.60;37.70;;;14.23;46.81;95282.84;4872326;29;20067;-49
2023/02/22 10:07:54;;;;;;;31.00;11.98;;;21.60;37.70;;;13.89;47.37;95283.94;4873438;29;20032;-57
2023/02/22 10:10:32;;;;;;;10.25;7.65;;;21.60;37.60;;;13.91;47.39;95288.97;4872589;29;20040;-54
2023/02/22 10:13:12;;;;;;;8.20;6.85;;;21.70;37.30;;;13.99;47.90;95285.66;4858938;29;20396;-52
2023/02/22 10:16:38;;;;;;;11.73;7.25;;;21.90;37.10;;;14.45;46.92;95276.81;4871889;29;20475;-51
2023/02/22 10:19:27;;;;;;;12.43;7.95;;;22.10;37.00;;;14.53;47.08;95274.25;4865864;29;20064;-52
2023/02/22 10:22:23;;;;;;;13.80;8.57;;;22.30;37.00;;;14.44;47.06;95281.38;4862918;29;20439;-50
2023/02/22 10:25:20;;;;;;;12.45;9.18;;;22.40;36.70;;;14.46;47.67;95278.41;4868715;29;20512;-53
2023/02/22 10:28:24;;;;;;;13.57;8.75;;;22.60;36.40;;;15.04;46.51;95272.47;4866793;29;20040;-56
2023/02/22 10:31:03;;;;;;;13.70;9.18;;;22.90;36.30;;;15.23;45.80;95277.69;4931047;28;20125;-50
2023/02/22 10:33:47;;;;;;;17.05;10.23;;;23.30;36.00;;;15.14;46.38;95266.91;4935198;28;20077;-54
2023/02/22 10:36:23;;;;;;;14.75;9.55;;;23.50;35.50;;;15.36;46.45;95281.47;4927185;29;20031;-55
2023/02/22 10:39:14;;;;;;;12.65;9.98;;;23.50;35.20;;;15.27;46.72;95278.72;4958919;28;20018;-55
2023/02/22 10:42:05;;;;;;;15.90;10.30;;;23.40;35.00;;;15.15;47.04;95273.06;4930760;28;20126;-54
2023/02/22 10:44:38;;;;;;;13.73;10.73;;;23.50;35.00;;;15.50;46.75;95272.28;4952939;28;20517;-51
2023/02/22 10:47:17;;;;;;;16.40;10.38;;;23.60;34.80;;;15.84;46.11;95267.53;4946511;28;20034;-53
2023/02/22 10:49:59;;;;;;;14.15;11.30;;;23.80;34.50;;;16.16;45.48;95267.25;4922145;28;20034;-55
2023/02/22 10:52:34;;;;;;;18.75;11.85;;;23.90;34.60;;;16.45;45.30;95271.34;4963097;28;20389;-56
2023/02/22 10:55:02;;;;;;;16.23;12.00;;;24.10;34.50;;;16.25;45.50;95270.00;4950606;28;20030;-55